NOAA Weather Radio

Lightning Safety

Turn Around Don't Drown
Storm Ready
SkyWarn
WACO REGIONAL AIRPORT, TX, United States (KACT) 31-36N 97-13W 151M
Oct 25, 2014 - 06:51 AM EDT / 2014.10.25 1051 UTC
Wind: from the S (180 degrees) at 7 MPH (6 KT):0
Visibility: 10 mile(s):0
Sky conditions: clear
Temperature: 62.1 F (16.7 C)
Dew Point: 57.9 F (14.4 C)
Relative Humidity: 86%
Pressure (altimeter): 30.13 in. Hg (1020 hPa)
ob: KACT 251051Z 18006KT 10SM CLR 17/14 A3013 RMK AO2 SLP196 T01670144
cycle: 11